Time;durP1;ratioP1;P1;durP2;ratioP2;P2;SDS_P1;SDS_P2;PMS_P1;PMS_P2;Temp;Humidity;BMP_temperature;BMP_pressure;BME280_temperature;BME280_humidity;BME280_pressure;Samples;Min_cycle;Max_cycle;Signal;HPM_P1;HPM_P2
2021/04/01 00:00:50;;;;;;;28.67;24.77;;;;;;;11.80;69.78;100693.62;1749206;79;21067;-96
2021/04/01 00:03:19;;;;;;;26.90;23.80;;;;;;;11.86;69.77;100690.70;1696476;83;21178;-96
2021/04/01 00:05:54;;;;;;;26.95;23.95;;;;;;;11.95;69.52;100690.12;1755462;79;21176;-96
2021/04/01 00:08:26;;;;;;;28.03;25.20;;;;;;;11.99;69.49;100688.20;1739671;80;21427;-94
2021/04/01 00:10:57;;;;;;;26.70;23.90;;;;;;;11.95;69.61;100686.12;1752954;80;21177;-95
2021/04/01 00:13:27;;;;;;;27.05;24.20;;;;;;;11.92;69.63;100675.80;1772329;79;21054;-94
2021/04/01 00:15:58;;;;;;;26.45;23.73;;;;;;;11.88;69.71;100673.49;1782453;79;21306;-94
2021/04/01 00:18:26;;;;;;;25.57;23.05;;;;;;;11.86;69.79;100668.00;1762122;79;21221;-91
2021/04/01 00:20:54;;;;;;;27.25;23.80;;;;;;;11.91;69.66;100667.48;1772951;79;21090;-95
2021/04/01 00:23:24;;;;;;;30.10;25.30;;;;;;;11.98;69.31;100662.53;1751931;79;21269;-94
2021/04/01 00:25:53;;;;;;;29.27;25.85;;;;;;;11.97;69.23;100661.38;1742734;81;21505;-93
2021/04/01 00:28:20;;;;;;;29.42;26.20;;;;;;;11.89;69.43;100656.95;1753774;81;21185;-95
2021/04/01 00:30:48;;;;;;;28.83;25.88;;;;;;;11.84;69.58;100654.01;1748746;81;21267;-88
2021/04/01 00:33:15;;;;;;;29.27;26.20;;;;;;;11.80;69.85;100647.39;1733191;79;21184;-94
2021/04/01 00:35:44;;;;;;;30.37;24.92;;;;;;;11.74;70.28;100642.30;1689285;82;21186;-92
2021/04/01 00:38:12;;;;;;;27.82;24.77;;;;;;;11.74;70.20;100646.30;1695864;84;21253;-92
2021/04/01 00:40:39;;;;;;;26.57;23.85;;;;;;;11.80;70.01;100641.54;1698835;82;21217;-93
2021/04/01 00:43:06;;;;;;;26.48;23.12;;;;;;;11.82;70.01;100635.50;1704248;82;21896;-93
2021/04/01 00:45:34;;;;;;;27.35;24.35;;;;;;;11.77;70.19;100633.08;1724380;80;21163;-94
2021/04/01 00:48:02;;;;;;;27.02;24.27;;;;;;;11.67;70.36;100627.52;1767548;79;21349;-94
2021/04/01 00:50:31;;;;;;;26.57;23.17;;;;;;;11.60;70.63;100627.13;1791060;78;21249;-94
2021/04/01 00:53:04;;;;;;;29.92;22.98;;;;;;;11.59;70.64;100626.31;1766279;79;21203;-91
2021/04/01 00:55:31;;;;;;;33.33;26.77;;;;;;;11.66;70.42;100625.07;1748245;79;21108;-91
2021/04/01 00:58:01;;;;;;;27.90;24.95;;;;;;;11.66;70.45;100625.07;1715945;82;21691;-90
2021/04/01 01:00:32;;;;;;;30.90;27.02;;;;;;;11.58;70.68;100624.64;1735812;82;21515;-90
2021/04/01 01:03:05;;;;;;;29.90;26.67;;;;;;;11.48;70.92;100618.27;1750701;81;21213;-92
2021/04/01 01:05:36;;;;;;;30.60;27.37;;;;;;;11.38;71.02;100619.09;1687336;81;21358;-92
2021/04/01 01:08:05;;;;;;;30.43;26.40;;;;;;;11.39;70.98;100615.91;1743912;81;21200;-93
2021/04/01 01:10:35;;;;;;;30.88;27.58;;;;;;;11.45;70.87;100609.81;1703581;82;21225;-91
2021/04/01 01:13:05;;;;;;;35.25;29.20;;;;;;;11.41;70.89;100613.36;1726945;80;21132;-92
2021/04/01 01:15:36;;;;;;;34.77;30.63;;;;;;;11.27;71.27;100613.72;1710271;82;21356;-92
2021/04/01 01:18:03;;;;;;;30.93;26.33;;;;;;;11.16;71.51;100606.70;1727845;82;21560;-91
2021/04/01 01:20:33;;;;;;;34.93;28.90;;;;;;;11.13;71.88;100604.39;1726026;82;21177;-93
2021/04/01 01:23:06;;;;;;;32.27;28.70;;;;;;;11.18;71.53;100599.33;1717026;82;21068;-96
2021/04/01 01:25:36;;;;;;;34.20;30.50;;;;;;;11.16;71.65;100604.03;1738456;82;21331;-96
2021/04/01 01:28:06;;;;;;;43.73;32.57;;;;;;;11.06;71.93;100601.13;1738254;82;21223;-95
2021/04/01 01:30:34;;;;;;;39.80;33.67;;;;;;;10.99;72.03;100594.88;1733318;80;21249;-96
2021/04/01 01:33:05;;;;;;;34.47;28.67;;;;;;;10.96;72.14;100595.23;1719829;82;21208;-96
2021/04/01 01:35:36;;;;;;;35.20;29.57;;;;;;;11.03;71.91;100594.01;1734556;80;21219;-95
2021/04/01 01:38:07;;;;;;;38.97;33.97;;;;;;;11.09;71.71;100587.44;1729597;80;21149;-94
2021/04/01 01:42:53;;;;;;;40.83;33.53;;;;;;;11.02;71.85;100587.85;1824838;77;22868;-96
2021/04/01 01:45:21;;;;;;;38.97;32.87;;;;;;;10.89;72.20;100583.67;1734101;81;21500;-96
2021/04/01 01:47:49;;;;;;;37.83;33.70;;;;;;;10.87;72.11;100588.37;1743576;82;21187;-96
2021/04/01 01:50:20;;;;;;;40.70;33.40;;;;;;;10.93;71.93;100584.95;1711999;83;21204;-96
2021/04/01 01:57:00;;;;;;;38.10;31.50;;;;;;;10.88;71.89;100586.01;1751512;78;21140;-96
2021/04/01 01:59:50;;;;;;;40.67;32.23;;;;;;;10.82;72.11;100584.91;1716114;83;21173;-95
2021/04/01 02:02:20;;;;;;;35.30;29.67;;;;;;;10.88;71.93;100579.34;1719104;81;21482;-95
2021/04/01 02:04:48;;;;;;;39.53;31.87;;;;;;;10.97;71.74;100578.23;1748953;78;21215;-96
2021/04/01 02:07:17;;;;;;;35.43;31.73;;;;;;;10.98;71.66;100578.57;1712848;83;21208;-96
2021/04/01 02:09:47;;;;;;;35.60;31.80;;;;;;;10.92;71.70;100577.95;1716714;82;21190;-96
2021/04/01 02:12:19;;;;;;;41.63;35.07;;;;;;;10.88;71.83;100579.34;1700748;81;21546;-96
2021/04/01 02:14:49;;;;;;;39.27;33.60;;;;;;;10.82;71.97;100569.42;1732257;83;21176;-90
2021/04/01 02:17:34;;;;;;;;;;;;;;;;;;;;;
2021/04/01 02:20:17;;;;;;;39.25;35.08;;;;;;;10.97;71.66;100564.90;1820287;77;23640;-96
2021/04/01 02:22:54;;;;;;;45.23;40.33;;;;;;;10.89;71.69;100573.01;1725880;78;21261;-95
2021/04/01 02:25:26;;;;;;;55.27;47.70;;;;;;;10.79;71.96;100572.44;1677010;84;21479;-96
2021/04/01 02:27:57;;;;;;;56.47;48.33;;;;;;;10.71;72.08;100561.36;1689282;84;21214;-95
2021/04/01 02:30:24;;;;;;;47.13;42.10;;;;;;;10.71;72.18;100566.70;1642612;84;21345;-94
2021/04/01 02:32:51;;;;;;;53.57;47.73;;;;;;;10.76;72.05;100560.83;1695474;84;21191;-96
2021/04/01 02:35:20;;;;;;;59.37;52.63;;;;;;;10.75;71.96;100559.16;1707385;81;21469;-94
2021/04/01 02:37:51;;;;;;;57.80;51.80;;;;;;;10.66;72.21;100559.27;1667066;84;21370;-95
2021/04/01 02:40:19;;;;;;;60.63;53.97;;;;;;;10.60;72.44;100555.16;1681004;85;21143;-95
2021/04/01 02:42:50;;;;;;;57.30;50.77;;;;;;;10.56;72.62;100553.88;1681268;85;21191;-96
2021/04/01 02:45:22;;;;;;;61.33;54.63;;;;;;;10.61;72.45;100559.48;1681695;84;21274;-96
2021/04/01 02:47:50;;;;;;;59.90;51.80;;;;;;;10.54;72.42;100558.05;1681753;85;21456;-96
2021/04/01 02:50:21;;;;;;;61.67;49.60;;;;;;;10.49;72.64;100564.42;1710071;84;21570;-96
2021/04/01 02:52:52;;;;;;;52.97;44.70;;;;;;;10.45;72.77;100555.98;1703104;84;21183;-96
2021/04/01 02:55:21;;;;;;;46.37;41.47;;;;;;;10.50;72.69;100556.77;1674389;82;21183;-96
2021/04/01 02:57:50;;;;;;;47.17;42.07;;;;;;;10.56;72.52;100549.88;1651486;85;21714;-96
2021/04/01 03:00:25;;;;;;;47.33;39.80;;;;;;;10.56;72.46;100551.20;1641593;83;21389;-91
2021/04/01 03:03:01;;;;;;;45.47;37.73;;;;;;;10.50;72.66;100552.25;1641165;82;21226;-96
2021/04/01 03:05:26;;;;;;;39.83;34.43;;;;;;;10.45;72.81;100545.81;1617416;88;21256;-94
2021/04/01 03:07:59;;;;;;;41.13;34.87;;;;;;;10.46;72.80;100543.48;1638547;88;21211;-96
2021/04/01 03:11:14;;;;;;;;;;;;;;;;;;;;;
2021/04/01 03:14:15;;;;;;;34.40;29.23;;;;;;;10.47;72.61;100539.31;1575343;86;21236;-96
2021/04/01 03:16:46;;;;;;;38.50;29.47;;;;;;;10.32;73.06;100528.63;1603785;89;21330;-96
2021/04/01 03:19:18;;;;;;;40.10;32.20;;;;;;;10.38;72.95;100539.07;1612776;89;21187;-96
2021/04/01 03:22:51;;;;;;;34.70;29.17;;;;;;;10.39;72.81;100541.22;1619457;84;21186;-95
2021/04/01 03:26:11;;;;;;;43.07;32.03;;;;;;;10.30;73.05;100536.44;1620540;84;21600;-96
2021/04/01 03:29:27;;;;;;;37.28;31.10;;;;;;;10.27;73.09;100532.31;1541527;84;21283;-96
2021/04/01 03:32:12;;;;;;;37.73;33.20;;;;;;;10.26;73.24;100534.63;1609977;84;21241;-96
2021/04/01 03:34:54;;;;;;;35.63;30.37;;;;;;;10.18;73.30;100528.58;1619286;85;21053;-94
2021/04/01 03:37:22;;;;;;;37.40;31.47;;;;;;;10.16;73.38;100533.26;1647511;85;21220;-96
2021/04/01 03:39:52;;;;;;;38.07;31.77;;;;;;;10.21;73.19;100529.05;1646415;84;21334;-96
2021/04/01 03:42:23;;;;;;;37.93;32.60;;;;;;;10.19;73.17;100528.88;1647449;85;21322;-96
2021/04/01 03:44:55;;;;;;;41.17;33.00;;;;;;;10.13;73.27;100527.77;1651244;83;21183;-94
2021/04/01 03:47:29;;;;;;;38.13;33.93;;;;;;;10.10;73.36;100529.48;1621421;87;21170;-94
2021/04/01 03:50:29;;;;;;;43.67;34.53;;;;;;;10.17;73.28;100531.75;1637571;85;21171;-96
2021/04/01 03:53:00;;;;;;;35.47;31.67;;;;;;;10.17;72.97;100520.25;1642138;86;21231;-96
2021/04/01 04:09:53;;;;;;;44.80;33.97;;;;;;;10.14;73.00;100516.94;1659890;82;21275;-96
2021/04/01 04:12:41;;;;;;;35.57;30.50;;;;;;;10.12;73.11;100520.80;1653467;82;21271;-96
2021/04/01 04:15:11;;;;;;;40.50;33.87;;;;;;;10.23;72.86;100515.03;1634215;86;21185;-96
2021/04/01 04:17:39;;;;;;;48.98;35.55;;;;;;;10.29;72.67;100512.16;1636347;86;21175;-93
2021/04/01 04:20:13;;;;;;;42.77;34.97;;;;;;;10.29;72.65;100509.48;1683034;83;21160;-95
2021/04/01 04:23:24;;;;;;;45.50;33.40;;;;;;;10.36;72.58;100502.94;1661316;79;21108;-92
2021/04/01 04:33:10;;;;;;;40.60;32.30;;;;;;;11.07;70.82;100494.73;1672299;84;21168;-90
2021/04/01 04:36:11;;;;;;;41.90;33.70;;;;;;;11.48;69.47;100492.00;1589624;87;21141;-93
2021/04/01 04:38:39;;;;;;;42.70;34.47;;;;;;;11.87;68.43;100491.53;1669898;84;21180;-84
2021/04/01 04:41:07;;;;;;;38.70;31.90;;;;;;;12.27;67.22;100481.67;1661223;86;21317;-83
2021/04/01 04:43:35;;;;;;;39.38;32.70;;;;;;;12.58;65.92;100485.27;1645564;86;21523;-82
2021/04/01 04:46:03;;;;;;;42.25;34.30;;;;;;;12.87;64.35;100481.99;1640703;86;21097;-85
2021/04/01 04:48:31;;;;;;;38.63;33.95;;;;;;;13.17;63.39;100478.48;1655146;86;21196;-82
2021/04/01 04:50:58;;;;;;;39.10;34.78;;;;;;;13.38;63.29;100468.16;1672787;85;21203;-83
2021/04/01 04:53:26;;;;;;;41.15;35.30;;;;;;;13.65;62.22;100471.38;1672132;85;21342;-87
2021/04/01 04:59:15;;;;;;;37.73;33.15;;;;;;;13.90;60.25;100463.55;1829658;77;23111;-84
2021/04/01 05:04:43;;;;;;;38.15;33.95;;;;;;;13.79;60.37;100473.05;1745602;82;21164;-83
2021/04/01 05:07:09;;;;;;;37.67;33.53;;;;;;;13.79;60.29;100467.17;1754522;81;21167;-83
2021/04/01 05:09:38;;;;;;;41.25;35.20;;;;;;;13.87;60.19;100462.64;1714870;83;21310;-83
2021/04/01 05:12:09;;;;;;;38.80;34.65;;;;;;;14.01;59.48;100461.58;1715268;80;21121;-83
2021/04/01 05:14:37;;;;;;;37.53;32.95;;;;;;;14.01;59.49;100460.23;1744589;81;21192;-81
2021/04/01 05:17:06;;;;;;;40.95;35.20;;;;;;;14.13;59.19;100453.22;1725771;81;21175;-82
2021/04/01 05:19:34;;;;;;;40.30;34.10;;;;;;;14.16;58.82;100452.78;1723498;81;21456;-84
2021/04/01 05:22:14;;;;;;;37.80;33.63;;;;;;;14.24;58.57;100454.45;1741912;81;21203;-83
2021/04/01 05:24:38;;;;;;;37.53;33.08;;;;;;;14.34;58.63;100450.80;1742699;81;21199;-82
2021/04/01 05:27:25;;;;;;;41.65;33.48;;;;;;;14.59;57.89;100448.80;1736915;81;21791;-82
2021/04/01 05:29:58;;;;;;;40.00;33.60;;;;;;;14.70;57.30;100448.13;1743417;81;21693;-79
2021/04/01 05:32:33;;;;;;;36.50;32.73;;;;;;;14.85;57.03;100447.86;1743481;81;21184;-83
2021/04/01 05:35:03;;;;;;;35.75;31.65;;;;;;;15.08;56.31;100446.51;1735815;80;21143;-84
2021/04/01 05:37:29;;;;;;;40.30;32.85;;;;;;;15.24;55.64;100450.03;1738736;81;21207;-83
2021/04/01 05:39:57;;;;;;;35.60;31.80;;;;;;;15.42;55.31;100447.13;1746024;81;22245;-83
2021/04/01 05:42:28;;;;;;;37.70;33.67;;;;;;;15.60;54.93;100443.17;1747904;81;21184;-82
2021/04/01 06:06:30;;;;;;;37.17;30.02;;;;;;;17.19;50.63;100425.50;1779776;79;23104;-84
2021/04/01 06:09:02;;;;;;;33.80;28.07;;;;;;;17.31;50.49;100430.41;1752703;82;21606;-83
2021/04/01 06:11:32;;;;;;;32.98;29.15;;;;;;;17.50;49.67;100433.84;1712627;79;21160;-80
2021/04/01 06:14:12;;;;;;;35.43;29.23;;;;;;;17.46;49.48;100428.60;1656981;86;21188;-81
2021/04/01 06:16:44;;;;;;;30.50;27.27;;;;;;;17.08;50.11;100423.91;1640929;87;21176;-81
2021/04/01 06:19:16;;;;;;;35.13;29.30;;;;;;;16.63;51.44;100420.23;1640078;87;21386;-79
2021/04/01 06:21:47;;;;;;;34.33;30.72;;;;;;;16.31;52.10;100420.90;1640310;87;21196;-81
2021/04/01 06:24:29;;;;;;;37.40;31.65;;;;;;;16.11;52.73;100423.29;1625427;86;21132;-80
2021/04/01 06:27:31;;;;;;;;;;;;;;;;;;;;;
2021/04/01 06:30:16;;;;;;;33.70;28.83;;;;;;;16.09;53.16;100415.97;1823234;77;23557;-81
2021/04/01 06:32:53;;;;;;;32.90;27.67;;;;;;;16.14;53.41;100417.98;1826678;78;21233;-80
2021/04/01 06:38:24;;;;;;;26.45;22.80;;;;;;;16.82;52.04;100414.80;1800732;78;23149;-80
2021/04/01 06:40:59;;;;;;;25.82;22.93;;;;;;;16.93;51.36;100409.52;1780875;80;21147;-81
2021/04/01 06:43:51;;;;;;;33.98;22.20;;;;;;;16.99;51.08;100409.63;1778077;80;21167;-80
2021/04/01 06:46:20;;;;;;;27.02;23.98;;;;;;;16.89;51.10;100398.88;1699976;80;21124;-79
2021/04/01 06:54:33;;;;;;;29.02;25.72;;;;;;;16.64;52.17;100398.17;1780830;79;23157;-77
2021/04/01 07:00:33;;;;;;;26.62;23.77;;;;;;;16.26;53.03;100397.91;1694936;84;21207;-78
2021/04/01 07:05:58;;;;;;;29.42;26.33;;;;;;;16.03;53.85;100387.80;1806623;79;28714;-79
2021/04/01 07:14:23;;;;;;;25.82;23.30;;;;;;;16.07;54.04;100384.45;1780072;79;23060;-80
2021/04/01 07:17:08;;;;;;;25.48;22.75;;;;;;;16.04;54.24;100385.42;1744081;81;21176;-80
2021/04/01 07:48:05;;;;;;;26.00;23.45;;;;;;;16.44;53.41;100352.14;1788192;79;27990;-82
2021/04/01 07:50:43;;;;;;;24.47;21.87;;;;;;;16.67;53.11;100352.80;1761227;81;21215;-83
2021/04/01 07:53:24;;;;;;;23.87;21.35;;;;;;;16.89;52.63;100343.69;1761310;81;21864;-82
2021/04/01 07:56:02;;;;;;;25.20;22.75;;;;;;;16.87;52.16;100336.37;1749464;80;21199;-83
2021/04/01 08:03:59;;;;;;;23.60;18.82;;;;;;;17.03;52.31;100330.86;1726032;82;21191;-84
2021/04/01 08:06:29;;;;;;;22.98;20.55;;;;;;;17.11;52.07;100327.83;1725442;82;22508;-83
2021/04/01 08:11:35;;;;;;;21.37;19.20;;;;;;;17.27;51.74;100327.69;1725475;81;21088;-84
2021/04/01 08:17:05;;;;;;;21.68;19.42;;;;;;;17.48;51.13;100313.34;1796280;77;22944;-84
2021/04/01 08:19:40;;;;;;;22.67;20.25;;;;;;;17.50;51.18;100322.02;1788223;80;22408;-84
2021/04/01 08:22:17;;;;;;;21.57;18.92;;;;;;;17.59;50.53;100313.03;1784868;80;21185;-82
2021/04/01 08:24:56;;;;;;;20.82;18.35;;;;;;;17.66;50.53;100304.30;1699054;84;21330;-81
2021/04/01 08:35:41;;;;;;;23.55;19.42;;;;;;;18.05;50.00;100288.44;1747207;82;21318;-84
2021/04/01 08:38:12;;;;;;;20.32;17.70;;;;;;;18.18;49.60;100288.70;1733320;82;21180;-83
2021/04/01 08:40:43;;;;;;;19.12;17.25;;;;;;;18.22;49.19;100278.53;1747445;82;21330;-85
2021/04/01 08:43:34;;;;;;;23.98;17.77;;;;;;;18.21;49.38;100279.57;1742713;82;21662;-85
2021/04/01 08:46:39;;;;;;;20.05;15.90;;;;;;;18.22;49.12;100277.17;1716199;81;21122;-83
2021/04/01 08:50:27;;;;;;;20.80;18.62;;;;;;;18.31;49.29;100270.87;1796080;78;22943;-83
2021/04/01 08:53:43;;;;;;;20.20;17.92;;;;;;;18.31;49.33;100265.48;1786564;78;21208;-83
2021/04/01 08:56:50;;;;;;;21.15;18.40;;;;;;;18.45;49.13;100262.76;1779977;78;21255;-90
2021/04/01 08:59:30;;;;;;;17.50;15.70;;;;;;;18.52;48.83;100256.41;1739368;80;21291;-83
2021/04/01 09:01:59;;;;;;;18.77;16.50;;;;;;;18.56;48.63;100252.16;1712717;82;21321;-88
2021/04/01 09:04:30;;;;;;;18.57;16.12;;;;;;;18.56;48.53;100248.92;1736119;82;21219;-92
2021/04/01 09:07:12;;;;;;;19.25;17.30;;;;;;;18.59;48.57;100248.95;1735870;82;21437;-87
2021/04/01 09:09:41;;;;;;;19.25;17.25;;;;;;;18.61;48.60;100249.53;1735660;82;21155;-82
2021/04/01 09:12:26;;;;;;;18.45;14.68;;;;;;;18.66;48.15;100242.88;1730993;79;21589;-84
2021/04/01 09:15:03;;;;;;;19.98;17.92;;;;;;;18.68;47.68;100241.59;1719822;82;21164;-82
2021/04/01 09:17:38;;;;;;;18.62;16.27;;;;;;;18.66;47.91;100236.13;1711734;81;21349;-83
2021/04/01 09:20:19;;;;;;;22.25;16.42;;;;;;;18.65;48.03;100230.45;1733941;82;21729;-84
2021/04/01 09:22:53;;;;;;;17.70;16.00;;;;;;;18.65;47.67;100224.52;1703954;81;21199;-83
2021/04/01 09:25:40;;;;;;;18.00;15.48;;;;;;;18.66;47.46;100226.67;1661669;85;21152;-83
2021/04/01 09:28:13;;;;;;;16.77;15.38;;;;;;;18.67;47.78;100224.28;1638998;87;21374;-79
2021/04/01 09:30:42;;;;;;;19.70;17.80;;;;;;;18.75;47.71;100226.56;1633378;83;21220;-82
2021/04/01 09:33:26;;;;;;;20.15;16.90;;;;;;;18.82;47.25;100215.10;1667670;84;21220;-85
2021/04/01 09:36:10;;;;;;;19.00;16.93;;;;;;;18.84;47.08;100210.81;1633093;87;21220;-85
2021/04/01 09:38:43;;;;;;;19.85;17.37;;;;;;;18.73;46.85;100212.48;1638909;87;21244;-84
2021/04/01 09:41:30;;;;;;;18.77;16.93;;;;;;;18.59;47.38;100207.12;1633960;85;21241;-83
2021/04/01 09:44:06;;;;;;;17.75;15.90;;;;;;;18.45;47.29;100201.23;1642506;86;21304;-83
2021/04/01 09:46:56;;;;;;;17.30;15.58;;;;;;;18.44;47.27;100203.12;1654548;82;21377;-83
2021/04/01 09:49:30;;;;;;;19.07;17.10;;;;;;;18.43;46.69;100196.61;1662748;85;21217;-85
2021/04/01 09:52:01;;;;;;;19.00;15.98;;;;;;;18.48;46.71;100193.47;1679705;84;21229;-83
2021/04/01 09:54:31;;;;;;;19.10;15.38;;;;;;;18.47;47.03;100191.81;1662326;86;21234;-85
2021/04/01 09:56:59;;;;;;;16.40;14.70;;;;;;;18.49;46.54;100186.98;1659904;85;21134;-85
2021/04/01 10:02:30;;;;;;;15.35;13.83;;;;;;;18.70;45.53;100183.81;1759119;79;23051;-83
2021/04/01 10:05:05;;;;;;;14.38;12.90;;;;;;;18.75;44.95;100183.36;1725986;83;21343;-86
2021/04/01 10:07:37;;;;;;;18.02;13.43;;;;;;;18.83;43.45;100181.62;1725999;82;21226;-85
2021/04/01 10:10:06;;;;;;;16.02;12.45;;;;;;;18.83;43.41;100184.31;1725676;83;21681;-85
2021/04/01 10:12:37;;;;;;;16.57;13.48;;;;;;;18.84;43.97;100177.87;1726852;80;21110;-84
2021/04/01 10:15:10;;;;;;;16.00;13.65;;;;;;;18.89;43.69;100178.47;1726243;82;21205;-84
2021/04/01 10:17:40;;;;;;;18.48;14.10;;;;;;;18.97;43.37;100177.25;1726656;83;21197;-84
2021/04/01 10:20:09;;;;;;;15.43;12.98;;;;;;;19.02;42.69;100171.91;1726001;82;21325;-85
2021/04/01 10:22:39;;;;;;;13.20;12.00;;;;;;;19.06;42.67;100167.64;1723691;82;21040;-85
2021/04/01 10:25:17;;;;;;;14.40;11.95;;;;;;;19.08;42.26;100165.53;1714096;84;21132;-86
2021/04/01 10:30:23;;;;;;;11.08;8.93;;;;;;;19.13;41.86;100143.16;1714158;82;21321;-86
2021/04/01 10:33:29;;;;;;;10.78;9.50;;;;;;;19.18;40.47;100148.64;1714022;82;21192;-88
2021/04/01 10:36:02;;;;;;;9.83;8.83;;;;;;;19.25;40.09;100143.88;1711019;82;21159;-88
2021/04/01 10:38:30;;;;;;;8.60;7.85;;;;;;;19.22;39.58;100137.06;1719534;82;21310;-86
2021/04/01 10:41:06;;;;;;;10.25;8.60;;;;;;;19.22;39.61;100129.50;1717121;82;21780;-86
2021/04/01 10:43:39;;;;;;;11.45;9.30;;;;;;;19.25;39.86;100128.47;1714485;82;21132;-85
2021/04/01 10:46:15;;;;;;;10.40;9.30;;;;;;;19.32;39.53;100120.70;1718360;80;21717;-85
2021/04/01 10:48:50;;;;;;;9.40;8.40;;;;;;;19.33;39.03;100116.95;1685157;84;21199;-88
2021/04/01 10:51:22;;;;;;;8.20;6.80;;;;;;;19.30;39.41;100106.09;1683227;84;21312;-86
2021/04/01 10:53:50;;;;;;;9.55;7.95;;;;;;;19.31;39.57;100105.03;1685333;84;21311;-87
2021/04/01 10:56:22;;;;;;;12.18;8.78;;;;;;;19.38;39.43;100098.06;1699932;84;21267;-87
2021/04/01 10:58:54;;;;;;;12.78;11.22;;;;;;;19.43;39.34;100097.59;1704522;84;21215;-86
2021/04/01 11:01:34;;;;;;;16.80;9.98;;;;;;;19.42;39.34;100093.78;1668895;84;21584;-84
2021/04/01 11:04:05;;;;;;;12.35;11.12;;;;;;;19.40;39.83;100087.81;1642063;87;21185;-84
2021/04/01 11:06:34;;;;;;;10.28;8.38;;;;;;;19.44;40.16;100078.16;1645782;85;21192;-83
2021/04/01 11:09:03;;;;;;;8.65;7.70;;;;;;;19.50;38.83;100070.92;1643882;87;21213;-86
2021/04/01 11:14:31;;;;;;;7.28;6.67;;;;;;;19.49;38.64;100076.03;1653794;86;21167;-92
2021/04/01 11:17:03;;;;;;;7.12;6.28;;;;;;;19.49;38.05;100070.08;1661152;86;21159;-94
2021/04/01 11:19:33;;;;;;;11.10;6.90;;;;;;;19.50;37.59;100063.63;1661497;86;21624;-92
2021/04/01 11:22:03;;;;;;;8.68;5.83;;;;;;;19.53;37.04;100067.15;1641683;86;21163;-94
2021/04/01 11:24:35;;;;;;;10.68;6.85;;;;;;;19.56;37.16;100063.95;1664234;85;21199;-91
2021/04/01 11:27:11;;;;;;;6.87;6.15;;;;;;;19.60;37.06;100060.20;1661470;86;21207;-92
2021/04/01 11:29:55;;;;;;;8.00;7.22;;;;;;;19.61;37.09;100054.55;1661369;86;21183;-92
2021/04/01 11:32:27;;;;;;;9.73;8.18;;;;;;;19.67;37.42;100053.25;1661490;86;21406;-92
2021/04/01 11:35:02;;;;;;;10.00;8.08;;;;;;;19.70;37.37;100044.61;1682754;85;21129;-94
2021/04/01 11:37:35;;;;;;;15.85;8.28;;;;;;;19.69;37.59;100043.80;1689259;85;21161;-91
2021/04/01 11:40:08;;;;;;;9.15;7.83;;;;;;;19.69;37.83;100030.83;1688846;83;21160;-91
2021/04/01 11:42:38;;;;;;;9.65;7.75;;;;;;;19.70;38.04;100040.55;1689520;85;21789;-90
2021/04/01 11:45:08;;;;;;;10.15;8.35;;;;;;;19.70;37.91;100029.73;1701936;83;21066;-92
2021/04/01 11:47:39;;;;;;;11.48;6.60;;;;;;;19.66;37.48;100022.67;1719396;83;21379;-94
2021/04/01 11:50:14;;;;;;;6.45;5.83;;;;;;;19.63;37.18;100022.66;1719252;83;21193;-92
2021/04/01 11:53:54;;;;;;;6.10;5.60;;;;;;;19.59;36.45;100016.14;1908380;74;25266;-92
2021/04/01 11:56:37;;;;;;;11.63;5.78;;;;;;;19.53;36.15;100013.63;1646331;84;21627;-92
2021/04/01 11:59:13;;;;;;;7.53;6.12;;;;;;;19.47;36.06;100011.41;1625802;88;21284;-90
2021/04/01 12:01:57;;;;;;;6.65;5.85;;;;;;;19.43;35.94;100007.59;1618242;86;21706;-92
2021/04/01 12:04:31;;;;;;;8.48;6.47;;;;;;;19.43;36.29;100000.83;1612509;89;21409;-90
2021/04/01 12:07:05;;;;;;;10.93;7.05;;;;;;;19.42;36.68;99995.97;1611879;89;21179;-91
2021/04/01 12:09:38;;;;;;;7.75;6.03;;;;;;;19.46;36.89;99989.52;1585515;90;21235;-89
2021/04/01 12:12:09;;;;;;;6.80;6.17;;;;;;;19.49;36.21;99985.48;1585706;88;21115;-89
2021/04/01 12:14:40;;;;;;;10.70;7.22;;;;;;;19.50;36.23;99986.59;1589608;87;21364;-88
2021/04/01 12:17:08;;;;;;;9.25;6.62;;;;;;;19.54;36.51;99972.02;1598647;87;21226;-88
2021/04/01 12:19:35;;;;;;;7.47;6.70;;;;;;;19.52;36.35;99977.68;1614391;87;21397;-83
2021/04/01 12:22:07;;;;;;;9.23;6.55;;;;;;;19.50;36.29;99976.31;1610669;87;21232;-92
2021/04/01 12:24:41;;;;;;;7.25;6.65;;;;;;;19.42;36.50;99965.41;1637848;86;21221;-85
2021/04/01 12:27:09;;;;;;;8.03;5.90;;;;;;;19.39;36.30;99959.18;1617368;87;21225;-85
2021/04/01 12:29:48;;;;;;;6.90;6.28;;;;;;;19.36;36.30;99963.73;1623950;87;21362;-81
2021/04/01 12:32:33;;;;;;;6.67;6.05;;;;;;;19.34;36.65;99957.23;1608518;87;21236;-91
2021/04/01 12:35:11;;;;;;;8.90;6.08;;;;;;;19.36;36.67;99948.88;1603725;89;21136;-90
2021/04/01 12:37:42;;;;;;;11.60;5.42;;;;;;;19.38;36.70;99949.42;1603753;88;21267;-90
2021/04/01 12:40:21;;;;;;;7.05;6.35;;;;;;;19.40;36.04;99948.63;1601686;89;21211;-91
2021/04/01 12:42:48;;;;;;;9.03;5.72;;;;;;;19.38;35.91;99942.67;1609628;89;21183;-90
2021/04/01 12:45:27;;;;;;;6.28;5.67;;;;;;;19.39;35.84;99945.67;1613025;86;21241;-90
2021/04/01 12:48:15;;;;;;;9.68;5.47;;;;;;;19.38;35.97;99926.46;1641834;85;21573;-90
2021/04/01 12:50:47;;;;;;;7.72;5.53;;;;;;;19.37;35.72;99925.65;1672151;86;21222;-90
2021/04/01 12:53:24;;;;;;;8.23;5.50;;;;;;;19.39;35.76;99925.40;1646813;86;21327;-90
2021/04/01 12:56:20;;;;;;;7.28;5.53;;;;;;;19.41;35.46;99910.55;1828275;77;22501;-89
2021/04/01 12:58:57;;;;;;;7.08;5.85;;;;;;;19.40;35.28;99927.02;1766961;81;21304;-90
2021/04/01 13:01:27;;;;;;;5.40;4.58;;;;;;;19.41;35.41;99917.30;1762640;78;21099;-90
2021/04/01 13:03:54;;;;;;;6.95;5.47;;;;;;;19.42;35.67;99918.11;1761296;81;21360;-90
2021/04/01 13:09:03;;;;;;;7.17;5.42;;;;;;;19.44;35.93;99901.94;1755234;81;21198;-91
2021/04/01 13:11:28;;;;;;;7.90;4.47;;;;;;;19.45;35.73;99900.04;1755801;80;21703;-93
2021/04/01 13:13:56;;;;;;;5.05;4.40;;;;;;;19.47;35.26;99900.59;1701489;82;21472;-91
2021/04/01 13:16:26;;;;;;;6.60;4.60;;;;;;;19.48;35.42;99892.78;1731265;83;21316;-92
2021/04/01 13:18:56;;;;;;;4.90;4.45;;;;;;;19.48;35.50;99883.31;1704722;83;21280;-91
2021/04/01 13:24:15;;;;;;;6.60;4.80;;;;;;;19.40;35.38;99872.97;1745981;81;22273;-90
2021/04/01 13:26:52;;;;;;;9.88;5.05;;;;;;;19.37;35.16;99874.30;1752420;76;21139;-90
2021/04/01 13:33:03;;;;;;;8.08;4.80;;;;;;;19.44;35.44;99865.45;1773710;79;23597;-91
2021/04/01 13:35:45;;;;;;;9.55;5.60;;;;;;;19.43;35.62;99867.05;1682932;82;21323;-91
2021/04/01 13:38:16;;;;;;;10.48;4.62;;;;;;;19.41;35.54;99858.39;1691821;81;21186;-91
2021/04/01 13:40:54;;;;;;;5.72;4.78;;;;;;;19.38;35.74;99858.38;1708471;83;21168;-90
2021/04/01 13:43:30;;;;;;;6.17;4.40;;;;;;;19.37;35.48;99854.58;1718078;81;21191;-89
2021/04/01 13:46:01;;;;;;;4.47;4.05;;;;;;;19.38;35.40;99846.73;1667513;82;21231;-91
2021/04/01 13:48:34;;;;;;;4.95;4.45;;;;;;;19.40;35.05;99847.30;1638960;82;21251;-90
2021/04/01 13:51:09;;;;;;;8.88;5.37;;;;;;;19.42;35.28;99836.52;1648407;85;21188;-90
2021/04/01 13:59:53;;;;;;;6.60;4.55;;;;;;;19.53;34.69;99834.68;1842136;76;22740;-93
2021/04/01 14:11:18;;;;;;;8.30;4.95;;;;;;;19.41;34.52;99809.75;1746499;79;21826;-90
2021/04/01 14:13:50;;;;;;;5.00;4.58;;;;;;;19.38;34.55;99804.85;1691169;83;21204;-93
2021/04/01 14:16:23;;;;;;;7.85;5.10;;;;;;;19.35;34.58;99798.63;1688196;83;21179;-90
2021/04/01 14:18:54;;;;;;;7.42;4.90;;;;;;;19.34;34.81;99805.91;1612179;86;21624;-92
2021/04/01 14:21:25;;;;;;;7.55;5.10;;;;;;;19.35;35.03;99802.69;1647853;86;21194;-89
2021/04/01 14:23:53;;;;;;;8.13;5.72;;;;;;;19.34;35.14;99795.09;1689931;83;21163;-91
2021/04/01 14:26:34;;;;;;;9.03;4.78;;;;;;;19.34;35.31;99791.04;1662213;84;21216;-89
2021/04/01 14:29:18;;;;;;;6.85;5.12;;;;;;;19.40;35.56;99786.48;1808752;77;24320;-92
2021/04/01 14:31:50;;;;;;;9.40;5.00;;;;;;;19.38;35.41;99792.69;1775093;79;21184;-91